createdAt,value
2022-11-03T00:01:00.578Z,10.80
2022-11-03T00:05:22.121Z,10.70
2022-11-03T00:09:23.936Z,10.80
2022-11-03T00:13:25.445Z,10.90
2022-11-03T00:17:26.971Z,11.00
2022-11-03T00:21:28.715Z,11.00
2022-11-03T00:25:30.240Z,10.80
2022-11-03T00:29:31.763Z,10.70
2022-11-03T00:33:33.462Z,10.60
2022-11-03T00:37:35.034Z,10.70
2022-11-03T00:41:37.042Z,10.60
2022-11-03T00:45:38.540Z,10.50
2022-11-03T00:49:40.451Z,10.60
2022-11-03T00:53:43.166Z,10.60
2022-11-03T00:57:45.188Z,10.60
2022-11-03T01:01:47.950Z,10.50
2022-11-03T01:06:08.819Z,10.50
2022-11-03T01:10:11.686Z,10.50
2022-11-03T01:14:14.690Z,10.40
2022-11-03T01:18:16.659Z,10.50
2022-11-03T01:22:18.875Z,10.60
2022-11-03T01:26:20.538Z,10.70
2022-11-03T01:30:22.139Z,10.60
2022-11-03T01:34:23.739Z,10.60
2022-11-03T01:38:25.300Z,10.50
2022-11-03T01:42:26.873Z,10.40
2022-11-03T01:46:29.021Z,10.40
2022-11-03T01:50:30.662Z,10.40
2022-11-03T01:54:33.506Z,10.30
2022-11-03T01:58:36.215Z,10.30
2022-11-03T02:02:37.755Z,10.30
2022-11-03T02:06:39.298Z,10.40
2022-11-03T02:10:41.031Z,10.30
2022-11-03T02:14:45.381Z,10.50
2022-11-03T02:18:47.351Z,10.40
2022-11-03T02:22:51.892Z,10.50
2022-11-03T02:26:55.382Z,10.50
2022-11-03T02:31:02.449Z,10.50
2022-11-03T02:35:08.756Z,10.40
2022-11-03T02:39:16.174Z,10.30
2022-11-03T02:43:18.508Z,10.30
2022-11-03T02:47:20.482Z,10.30
2022-11-03T02:51:22.008Z,10.20
2022-11-03T02:55:36.149Z,10.20
2022-11-03T02:59:51.347Z,10.20
2022-11-03T03:04:04.340Z,10.20
2022-11-03T03:08:07.679Z,10.30
2022-11-03T03:12:10.541Z,10.30
2022-11-03T03:16:16.914Z,10.50
2022-11-03T03:20:22.668Z,10.40
2022-11-03T03:24:39.674Z,10.60
2022-11-03T03:28:43.907Z,10.50
2022-11-03T03:32:49.757Z,10.50
2022-11-03T03:36:51.718Z,10.50
2022-11-03T03:40:55.463Z,10.50
2022-11-03T03:44:58.468Z,10.50
2022-11-03T03:48:59.991Z,10.70
2022-11-03T03:53:02.906Z,10.70
2022-11-03T03:57:05.835Z,10.80
2022-11-03T04:01:10.792Z,10.80
2022-11-03T04:05:12.510Z,10.80
2022-11-03T04:09:14.366Z,10.90
2022-11-03T04:13:34.698Z,11.00
2022-11-03T04:17:54.822Z,10.90
2022-11-03T04:22:14.993Z,11.00
2022-11-03T04:26:17.577Z,10.90
2022-11-03T04:30:20.346Z,11.00
2022-11-03T04:34:23.703Z,11.00
2022-11-03T04:38:26.162Z,11.20
2022-11-03T04:42:30.758Z,11.10
2022-11-03T04:46:32.493Z,11.20
2022-11-03T04:50:34.346Z,11.20
2022-11-03T04:54:36.211Z,11.20
2022-11-03T04:58:38.119Z,11.20
2022-11-03T05:02:42.044Z,11.20
2022-11-03T05:06:51.442Z,11.30
2022-11-03T05:10:53.039Z,11.30
2022-11-03T05:14:58.633Z,11.30
2022-11-03T05:19:00.800Z,11.30
2022-11-03T05:23:02.635Z,11.20
2022-11-03T05:27:05.831Z,11.30
2022-11-03T05:31:25.559Z,11.30
2022-11-03T05:35:27.140Z,11.30
2022-11-03T05:39:36.188Z,11.20
2022-11-03T05:43:37.741Z,11.20
2022-11-03T05:47:39.996Z,11.20
2022-11-03T05:51:42.743Z,11.20
2022-11-03T05:55:44.292Z,11.20
2022-11-03T05:59:47.239Z,11.20
2022-11-03T06:03:49.011Z,11.10
2022-11-03T06:07:52.379Z,11.10
2022-11-03T06:11:55.422Z,11.10
2022-11-03T06:15:58.695Z,11.00
2022-11-03T06:20:00.758Z,11.00
2022-11-03T06:24:02.423Z,10.90
2022-11-03T06:28:05.290Z,10.80
2022-11-03T06:32:10.701Z,10.80
2022-11-03T06:36:19.563Z,10.70
2022-11-03T06:40:21.115Z,10.60
2022-11-03T06:44:24.877Z,10.60
2022-11-03T06:48:28.315Z,10.60
2022-11-03T06:52:39.579Z,10.60
2022-11-03T06:56:41.621Z,10.60
2022-11-03T07:00:48.972Z,10.60
2022-11-03T07:04:52.731Z,10.60
2022-11-03T07:09:01.886Z,10.70
2022-11-03T07:13:10.737Z,10.70
2022-11-03T07:17:20.730Z,10.80
2022-11-03T07:21:29.467Z,10.80
2022-11-03T07:25:31.598Z,10.90
2022-11-03T07:29:33.157Z,10.90
2022-11-03T07:33:34.760Z,11.00
2022-11-03T07:37:36.424Z,11.10
2022-11-03T07:41:38.073Z,11.10
2022-11-03T07:45:59.144Z,11.10
2022-11-03T07:50:01.420Z,11.20
2022-11-03T07:54:13.480Z,11.20
2022-11-03T07:58:20.853Z,11.20
2022-11-03T08:02:34.250Z,11.20
2022-11-03T08:06:36.013Z,11.30
2022-11-03T08:10:40.189Z,11.30
2022-11-03T08:14:41.771Z,11.30
2022-11-03T08:18:43.377Z,11.40
2022-11-03T08:22:59.062Z,11.50
2022-11-03T08:27:06.726Z,11.50
2022-11-03T08:31:12.690Z,11.50
2022-11-03T08:35:14.911Z,11.50
2022-11-03T08:39:18.849Z,11.60
2022-11-03T08:43:20.605Z,11.50
2022-11-03T08:47:22.223Z,11.60
2022-11-03T08:51:23.832Z,11.60
2022-11-03T08:55:25.463Z,11.60
2022-11-03T08:59:27.041Z,11.60
2022-11-03T09:03:28.846Z,11.70
2022-11-03T09:11:52.365Z,11.90
2022-11-03T09:15:53.931Z,11.90
2022-11-03T09:19:55.566Z,12.10
2022-11-03T09:23:59.367Z,12.10
2022-11-03T09:28:01.041Z,12.10
2022-11-03T09:32:02.716Z,12.10
2022-11-03T09:36:04.324Z,12.10
2022-11-03T09:40:06.556Z,12.20
2022-11-03T09:44:08.408Z,12.20
2022-11-03T09:48:11.828Z,12.30
2022-11-03T09:52:15.776Z,12.30
2022-11-03T09:56:19.675Z,12.40
2022-11-03T10:00:23.010Z,12.50
2022-11-03T10:04:31.244Z,12.60
2022-11-03T10:08:34.407Z,12.60
2022-11-03T10:12:37.484Z,12.60
2022-11-03T10:16:40.446Z,12.60
2022-11-03T10:20:42.148Z,12.60
2022-11-03T10:24:43.781Z,12.70
2022-11-03T10:28:59.500Z,12.70
2022-11-03T10:33:01.096Z,12.70
2022-11-03T10:37:10.609Z,12.70
2022-11-03T10:41:14.075Z,12.70
2022-11-03T10:45:17.508Z,12.70
2022-11-03T10:49:20.001Z,12.70
2022-11-03T10:53:22.569Z,12.70
2022-11-03T10:57:24.858Z,12.70
2022-11-03T11:01:26.999Z,12.70
2022-11-03T11:05:29.238Z,12.80
2022-11-03T11:09:30.928Z,12.80
2022-11-03T11:13:32.549Z,12.80
2022-11-03T11:17:37.206Z,12.90
2022-11-03T11:21:38.769Z,12.90
2022-11-03T11:26:00.618Z,13.00
2022-11-03T11:30:07.387Z,13.00
2022-11-03T11:34:08.947Z,13.00
2022-11-03T11:38:29.351Z,13.10
2022-11-03T11:42:32.566Z,13.20
2022-11-03T11:46:41.036Z,13.20
2022-11-03T11:50:42.650Z,13.20
2022-11-03T11:54:44.374Z,13.20
2022-11-03T11:58:50.217Z,13.20
2022-11-03T12:02:52.929Z,13.20
2022-11-03T12:06:55.821Z,13.20
2022-11-03T12:10:59.061Z,13.20
2022-11-03T12:15:01.448Z,13.30
2022-11-03T12:19:21.975Z,13.50
2022-11-03T12:23:43.114Z,13.40
2022-11-03T12:27:46.129Z,13.40
2022-11-03T12:31:48.178Z,13.40
2022-11-03T12:35:49.885Z,13.50
2022-11-03T12:39:51.608Z,13.50
2022-11-03T12:43:54.385Z,13.50
2022-11-03T12:47:56.148Z,13.50
2022-11-03T12:52:08.169Z,13.50
2022-11-03T12:56:11.080Z,13.40
2022-11-03T13:00:13.024Z,13.40
2022-11-03T13:04:14.678Z,13.40
2022-11-03T13:12:33.853Z,13.30
2022-11-03T13:16:35.895Z,13.30
2022-11-03T13:20:37.697Z,13.30
2022-11-03T13:24:39.431Z,13.40
2022-11-03T13:28:41.113Z,13.40
2022-11-03T13:32:42.683Z,13.30
2022-11-03T13:36:44.182Z,13.40
2022-11-03T13:41:07.060Z,13.40
2022-11-03T13:45:08.019Z,13.40
2022-11-03T14:06:36.423Z,13.60
2022-11-03T14:10:37.921Z,13.60
2022-11-03T14:14:39.512Z,13.50
2022-11-03T14:18:41.101Z,13.40
2022-11-03T14:22:42.640Z,13.30
2022-11-03T14:26:44.564Z,13.30
2022-11-03T14:30:46.206Z,13.20
2022-11-03T14:34:48.276Z,13.20
2022-11-03T14:38:50.322Z,13.00
2022-11-03T14:42:51.881Z,13.00
2022-11-03T14:46:53.531Z,12.90
2022-11-03T14:50:55.167Z,12.60
2022-11-03T14:54:56.791Z,12.40
2022-11-03T14:58:58.349Z,12.30
2022-11-03T15:03:00.895Z,12.20
2022-11-03T15:07:02.607Z,12.20
2022-11-03T15:11:05.382Z,12.10
2022-11-03T15:15:07.163Z,12.10
2022-11-03T15:19:08.810Z,12.00
2022-11-03T15:27:32.001Z,11.90
2022-11-03T15:31:33.667Z,11.90
2022-11-03T15:35:35.440Z,11.90
2022-11-03T15:39:37.057Z,11.90
2022-11-03T15:43:38.572Z,11.80
2022-11-03T15:47:40.403Z,11.90
2022-11-03T15:51:41.960Z,11.90
2022-11-03T15:55:43.574Z,11.90
2022-11-03T15:59:45.197Z,11.90
2022-11-03T16:03:46.757Z,11.90
2022-11-03T16:07:48.349Z,11.90
2022-11-03T16:11:50.009Z,11.90
2022-11-03T16:15:56.442Z,11.90
2022-11-03T16:19:58.250Z,11.90
2022-11-03T16:23:59.859Z,12.00
2022-11-03T16:28:01.687Z,12.00
2022-11-03T16:32:03.321Z,11.90
2022-11-03T16:36:04.948Z,12.00
2022-11-03T16:40:08.907Z,12.00
2022-11-03T16:44:13.880Z,12.00
2022-11-03T16:48:18.329Z,12.00
2022-11-03T16:52:27.460Z,12.00
2022-11-03T17:00:52.380Z,12.00
2022-11-03T17:04:54.070Z,12.00
2022-11-03T17:08:55.683Z,12.00
2022-11-03T17:12:58.401Z,12.00
2022-11-03T17:17:00.182Z,12.00
2022-11-03T17:21:01.802Z,12.00
2022-11-03T17:25:04.306Z,12.10
2022-11-03T17:29:06.529Z,12.10
2022-11-03T17:33:10.295Z,12.00
2022-11-03T17:37:12.713Z,12.10
2022-11-03T17:41:19.156Z,12.00
2022-11-03T17:45:22.848Z,12.00
2022-11-03T17:49:24.923Z,12.00
2022-11-03T17:53:44.393Z,11.90
2022-11-03T17:57:46.056Z,12.00
2022-11-03T18:15:59.643Z,11.90
2022-11-03T18:20:03.435Z,11.80
2022-11-03T18:24:13.879Z,11.80
2022-11-03T18:28:15.952Z,11.90
2022-11-03T18:32:19.114Z,11.90
2022-11-03T18:36:22.756Z,11.90
2022-11-03T18:40:24.679Z,11.90
2022-11-03T18:44:30.611Z,11.80
2022-11-03T18:48:33.512Z,11.80
2022-11-03T18:52:41.539Z,11.80
2022-11-03T18:56:43.557Z,11.80
2022-11-03T19:00:48.954Z,11.90
2022-11-03T19:04:54.477Z,11.70
2022-11-03T19:09:01.308Z,11.80
2022-11-03T19:13:03.274Z,11.80
2022-11-03T19:17:22.892Z,11.80
2022-11-03T19:21:28.430Z,11.70
2022-11-03T19:25:47.333Z,11.70
2022-11-03T19:29:54.823Z,11.70
2022-11-03T19:33:57.448Z,11.70
2022-11-03T19:38:04.140Z,11.80
2022-11-03T19:42:28.092Z,11.80
2022-11-03T19:46:29.700Z,11.60
2022-11-03T19:50:32.589Z,11.70
2022-11-03T19:54:46.229Z,11.70
2022-11-03T19:58:50.523Z,11.70
2022-11-03T20:02:52.371Z,11.70
2022-11-03T20:07:18.568Z,11.70
2022-11-03T20:11:20.287Z,11.70
2022-11-03T20:15:29.235Z,11.80
2022-11-03T20:19:53.153Z,11.70
2022-11-03T20:24:01.444Z,11.80
2022-11-03T20:28:20.175Z,11.70
2022-11-03T20:32:22.106Z,11.70
2022-11-03T20:36:23.851Z,11.80
2022-11-03T20:40:29.721Z,11.70
2022-11-03T20:44:44.393Z,11.70
2022-11-03T20:48:45.938Z,11.60
2022-11-03T20:52:48.153Z,11.50
2022-11-03T20:56:49.784Z,11.60
2022-11-03T21:00:51.564Z,11.60
2022-11-03T21:04:53.567Z,11.60
2022-11-03T21:08:55.408Z,11.60
2022-11-03T21:12:57.695Z,11.60
2022-11-03T21:17:18.430Z,11.60
2022-11-03T21:21:21.360Z,11.60
2022-11-03T21:25:24.050Z,11.50
2022-11-03T21:29:57.812Z,11.50
2022-11-03T21:33:47.725Z,11.40
2022-11-03T21:37:49.347Z,11.50
2022-11-03T21:46:34.681Z,11.50
2022-11-03T21:51:03.616Z,11.50
2022-11-03T21:55:08.715Z,11.50
2022-11-03T21:59:20.460Z,11.50
2022-11-03T22:03:25.227Z,11.60
2022-11-03T22:07:30.795Z,11.40
2022-11-03T22:11:44.389Z,11.40
2022-11-03T22:16:05.363Z,11.50
2022-11-03T22:20:29.314Z,11.40
2022-11-03T22:24:52.154Z,11.40
2022-11-03T22:29:20.499Z,11.30
2022-11-03T22:33:22.256Z,11.20
2022-11-03T22:42:03.559Z,10.50
2022-11-03T22:46:16.823Z,10.50
2022-11-03T22:50:29.259Z,10.60
2022-11-03T22:54:37.426Z,10.60
2022-11-03T23:07:13.858Z,10.50
2022-11-03T23:11:19.243Z,10.70
2022-11-03T23:15:32.726Z,10.50
2022-11-03T23:19:52.729Z,10.60
2022-11-03T23:24:12.891Z,10.50
2022-11-03T23:28:14.473Z,10.60
2022-11-03T23:32:16.025Z,10.70
2022-11-03T23:36:17.713Z,10.70
2022-11-03T23:40:21.448Z,10.60
2022-11-03T23:44:23.274Z,10.70
2022-11-03T23:48:43.523Z,10.60
2022-11-03T23:52:46.240Z,10.60
2022-11-03T23:57:06.462Z,10.70
